Quincy, IL (62301)

5:17 PM CST en Enero 24, 2017 (GMT -0600)
S 28th Street | | Change Station

Alt 610 ft 39.91 °N, 91.37 °W | Updated 19 seconds ago

Despejado
Despejado
42.1 ° F
Sensación térmica 40 ° F
N
4.0
Viento Variable Viento desde Este
Gusts 4.0 mph

Hoy
Alta -- | Baja -- ° F
--% Posibilidad de precipitaciones
Ayer
Alta -- | Baja -- ° F
Precip. -- pul
Presión 29.62 pul
Visibilidad 10.0 Millas
Nubes Despejado
Vientos helados 40 ° F
Punto de rocío 36 ° F
Humedad 78%
Precipitaciones 0.00 pul
Espesor de la nieve No disponible.
7:20 AM 5:15 PM
Creciente menguante, 9% visible
METAR KUIN 242254Z AUTO 12016G24KT 10SM CLR 06/02 A2961 RMK AO2 PK WND 11028/2211 SLP031 T00560017
Presión 29.62 pul
Visibilidad 10.0 Millas
Nubes Despejado
Vientos helados 40 ° F
Punto de rocío 36 ° F
Humedad 78%
Precipitaciones 0.00 pul
Espesor de la nieve No disponible.
7:20 AM 5:15 PM
Creciente menguante, 9% visible
METAR KUIN 242254Z AUTO 12016G24KT 10SM CLR 06/02 A2961 RMK AO2 PK WND 11028/2211 SLP031 T00560017

Get Your Daily Forecast Email!

Thanks for signing up!

Be on the lookout for a verification email in your inbox.

You'll start receiving the daily forecast at 8 AM.

×

10-Day Weather Forecast

Almanac

Astronomía

Jan. 24, 2017 Salida Puesta
Hora real
Crepúsculo civil
Crepúsculo náutico
Crepúsculo astronómico
Luna
Horas de luz
Horas de luz
Tomorrow will be .
, % of the Moon is Illuminated

Extremos de hoy

Máximos del estado Bajos del estado

Community

WunderPhotos

Upload Photos

1,962,540 ¡fotos cargadas!

WunderBlog® & News

Nearby

Calidad del aire

  Calidad del aire Índice AQ Contaminante
Not available.

Grosos de nieve

Estación Profundido Altura

Actividad de terremotos

Ciudad Distance Mag. Tiempo y dato
Magnitud mínima muestra es 2,5.

Temperaturas de aguas costeras

Lugar Temperatura

Stations

Estaciones meteorológicas cercanas

Ubicación de la estación Temp. Vientos helados Punto de rocío Humedad Viento Precip. Alt Actualizado Tipo
                   

Watches & Warnings

There are currently no watches in effect.